createdAt,value
2019-04-05T00:01:26.917Z,12.63
2019-04-05T00:03:01.931Z,14.73
2019-04-05T00:04:36.776Z,14.07
2019-04-05T00:06:11.801Z,17.80
2019-04-05T00:07:46.558Z,13.10
2019-04-05T00:09:21.653Z,13.27
2019-04-05T00:10:56.418Z,13.77
2019-04-05T00:12:31.132Z,21.00
2019-04-05T00:14:05.600Z,22.20
2019-04-05T00:15:39.961Z,25.30
2019-04-05T00:17:14.625Z,29.23
2019-04-05T00:18:49.041Z,27.97
2019-04-05T00:20:23.460Z,25.90
2019-04-05T00:21:57.809Z,25.10
2019-04-05T00:23:32.176Z,29.37
2019-04-05T00:25:07.314Z,25.97
2019-04-05T00:26:41.659Z,27.30
2019-04-05T00:28:16.024Z,28.67
2019-04-05T00:29:50.721Z,30.23
2019-04-05T00:31:25.330Z,33.97
2019-04-05T00:32:59.684Z,41.20
2019-04-05T00:34:34.105Z,49.43
2019-04-05T00:36:08.538Z,47.60
2019-04-05T00:37:42.929Z,52.37
2019-04-05T00:39:17.340Z,45.87
2019-04-05T00:40:51.753Z,49.67
2019-04-05T00:42:26.132Z,42.10
2019-04-05T00:44:00.745Z,47.20
2019-04-05T00:45:35.094Z,52.87
2019-04-05T00:47:09.847Z,57.00
2019-04-05T00:48:44.297Z,68.63
2019-04-05T00:50:18.852Z,66.47
2019-04-05T00:51:53.364Z,70.17
2019-04-05T00:53:27.704Z,63.47
2019-04-05T00:55:02.160Z,68.80
2019-04-05T00:56:36.603Z,67.03
2019-04-05T00:58:11.017Z,70.63
2019-04-05T00:59:45.442Z,74.97
2019-04-05T01:01:19.890Z,78.60
2019-04-05T01:02:54.578Z,83.90
2019-04-05T01:04:29.770Z,79.43
2019-04-05T01:06:05.527Z,81.27
2019-04-05T01:07:40.951Z,87.47
2019-04-05T01:09:15.722Z,94.80
2019-04-05T01:10:50.572Z,96.00
2019-04-05T01:12:26.676Z,103.53
2019-04-05T01:14:01.817Z,96.67
2019-04-05T01:15:41.038Z,104.80
2019-04-05T01:17:24.417Z,114.37
2019-04-05T01:18:50.289Z,124.60
2019-04-05T01:20:29.706Z,116.30
2019-04-05T01:22:09.502Z,112.23
2019-04-05T01:23:44.482Z,106.10
2019-04-05T01:25:21.136Z,109.70
2019-04-05T01:26:56.225Z,106.93
2019-04-05T01:28:30.896Z,108.57
2019-04-05T01:30:07.188Z,111.05
2019-04-05T01:31:41.890Z,110.92
2019-04-05T01:33:16.731Z,112.42
2019-04-05T01:34:51.096Z,116.45
2019-04-05T01:36:26.028Z,111.87
2019-04-05T01:38:00.853Z,107.80
2019-04-05T01:39:35.692Z,100.20
2019-04-05T01:41:11.509Z,117.83
2019-04-05T01:42:48.119Z,121.93
2019-04-05T01:44:23.162Z,115.75
2019-04-05T01:45:58.373Z,111.03
2019-04-05T01:47:32.882Z,123.50
2019-04-05T01:49:07.477Z,122.90
2019-04-05T01:50:41.981Z,134.70
2019-04-05T01:52:17.349Z,129.10
2019-04-05T01:53:51.709Z,132.07
2019-04-05T01:55:26.237Z,147.95
2019-04-05T01:57:00.862Z,150.03
2019-04-05T01:58:35.308Z,128.07
2019-04-05T02:00:11.601Z,116.43
2019-04-05T02:01:46.532Z,125.78
2019-04-05T02:03:21.094Z,130.00
2019-04-05T02:04:55.975Z,128.00
2019-04-05T02:06:30.825Z,133.03
2019-04-05T02:08:09.561Z,139.25
2019-04-05T02:09:44.318Z,126.82
2019-04-05T02:11:19.224Z,123.80
2019-04-05T02:12:53.941Z,115.03
2019-04-05T02:14:28.373Z,118.90
2019-04-05T02:16:06.513Z,123.53
2019-04-05T02:17:39.389Z,127.67
2019-04-05T02:19:13.824Z,133.20
2019-04-05T02:20:48.756Z,123.02
2019-04-05T02:22:23.491Z,116.37
2019-04-05T02:23:58.354Z,117.17
2019-04-05T02:25:33.122Z,117.05
2019-04-05T02:27:07.762Z,167.50
2019-04-05T02:28:42.158Z,148.30
2019-04-05T02:30:17.044Z,138.37
2019-04-05T02:31:51.406Z,131.90
2019-04-05T02:33:26.501Z,136.22
2019-04-05T02:35:01.438Z,142.10
2019-04-05T02:36:36.298Z,153.07
2019-04-05T02:38:10.721Z,140.88
2019-04-05T02:39:45.161Z,128.65
2019-04-05T02:41:21.981Z,130.30
2019-04-05T02:43:00.161Z,147.62
2019-04-05T02:44:35.675Z,124.30
2019-04-05T02:46:23.572Z,140.18
2019-04-05T02:47:53.774Z,163.50
2019-04-05T02:49:32.999Z,136.00
2019-04-05T02:51:10.618Z,131.22
2019-04-05T02:52:48.993Z,125.33
2019-04-05T02:54:25.146Z,124.50
2019-04-05T02:56:03.039Z,124.12
2019-04-05T02:57:38.656Z,124.22
2019-04-05T02:59:15.749Z,117.72
2019-04-05T03:00:51.645Z,132.18
2019-04-05T03:02:28.298Z,131.43
2019-04-05T03:04:04.654Z,135.82
2019-04-05T03:05:40.611Z,146.53
2019-04-05T03:07:16.275Z,137.60
2019-04-05T03:08:52.011Z,147.28
2019-04-05T03:11:07.760Z,138.43
2019-04-05T03:12:42.951Z,148.62
2019-04-05T03:14:19.833Z,137.40
2019-04-05T03:15:59.429Z,142.90
2019-04-05T03:17:37.377Z,143.13
2019-04-05T03:19:19.089Z,129.30
2019-04-05T03:20:56.977Z,127.20
2019-04-05T03:22:34.629Z,162.85
2019-04-05T03:24:14.745Z,160.50
2019-04-05T03:25:51.046Z,142.50
2019-04-05T03:27:31.383Z,155.75
2019-04-05T03:29:10.273Z,148.05
2019-04-05T03:30:45.720Z,147.53
2019-04-05T03:32:21.218Z,141.45
2019-04-05T03:33:57.359Z,148.28
2019-04-05T03:35:32.692Z,138.77
2019-04-05T03:37:08.171Z,154.32
2019-04-05T03:38:43.030Z,170.70
2019-04-05T03:40:17.901Z,176.80
2019-04-05T03:41:54.478Z,190.30
2019-04-05T03:43:29.511Z,164.22
2019-04-05T03:45:04.538Z,165.70
2019-04-05T03:46:54.869Z,157.95
2019-04-05T03:48:16.409Z,172.07
2019-04-05T03:49:50.873Z,183.27
2019-04-05T03:51:25.678Z,186.20
2019-04-05T03:53:00.149Z,182.25
2019-04-05T03:54:34.883Z,174.50
2019-04-05T03:56:09.486Z,164.03
2019-04-05T03:57:45.069Z,166.62
2019-04-05T03:59:21.009Z,150.82
2019-04-05T04:00:55.511Z,153.40
2019-04-05T04:02:30.162Z,164.25
2019-04-05T04:04:04.897Z,159.10
2019-04-05T04:05:39.854Z,153.10
2019-04-05T04:07:14.324Z,146.95
2019-04-05T04:08:48.982Z,153.60
2019-04-05T04:10:25.607Z,137.55
2019-04-05T04:12:00.467Z,157.80
2019-04-05T04:13:34.905Z,136.50
2019-04-05T04:15:15.837Z,133.40
2019-04-05T04:16:50.785Z,133.90
2019-04-05T04:18:25.377Z,151.97
2019-04-05T04:20:00.091Z,146.82
2019-04-05T04:21:41.714Z,145.87
2019-04-05T04:23:16.743Z,150.62
2019-04-05T04:24:51.592Z,138.55
2019-04-05T04:26:26.198Z,144.80
2019-04-05T04:28:00.895Z,143.82
2019-04-05T04:29:35.402Z,132.27
2019-04-05T04:31:09.866Z,140.53
2019-04-05T04:32:44.671Z,142.57
2019-04-05T04:34:20.463Z,143.07
2019-04-05T04:35:54.910Z,137.43
2019-04-05T04:37:29.402Z,137.45
2019-04-05T04:39:05.959Z,145.47
2019-04-05T04:40:40.774Z,144.30
2019-04-05T04:42:16.132Z,140.47
2019-04-05T04:43:50.805Z,149.87
2019-04-05T04:45:25.694Z,157.03
2019-04-05T04:47:01.097Z,146.63
2019-04-05T04:48:35.990Z,147.30
2019-04-05T04:50:11.695Z,145.60
2019-04-05T04:51:46.463Z,146.93
2019-04-05T04:53:21.442Z,138.00
2019-04-05T04:54:56.274Z,137.33
2019-04-05T04:56:31.470Z,136.23
2019-04-05T04:58:06.301Z,128.97
2019-04-05T04:59:41.005Z,126.20
2019-04-05T05:01:15.376Z,142.77
2019-04-05T05:02:51.221Z,135.23
2019-04-05T05:04:26.559Z,116.90
2019-04-05T05:06:01.605Z,132.77
2019-04-05T05:07:37.220Z,125.50
2019-04-05T05:09:12.731Z,126.03
2019-04-05T05:10:48.765Z,121.83
2019-04-05T05:12:24.957Z,121.30
2019-04-05T05:13:59.895Z,113.13
2019-04-05T05:15:35.347Z,125.23
2019-04-05T05:17:10.527Z,126.30
2019-04-05T05:18:45.652Z,119.90
2019-04-05T05:20:20.943Z,119.93
2019-04-05T05:21:56.516Z,126.17
2019-04-05T05:23:31.885Z,119.33
2019-04-05T05:25:07.727Z,113.77
2019-04-05T05:26:42.963Z,114.67
2019-04-05T05:28:18.467Z,119.33
2019-04-05T05:29:53.773Z,119.07
2019-04-05T05:31:28.774Z,113.77
2019-04-05T05:33:03.904Z,108.97
2019-04-05T05:34:38.967Z,121.23
2019-04-05T05:36:14.478Z,134.27
2019-04-05T05:37:50.161Z,118.23
2019-04-05T05:39:25.149Z,123.87
2019-04-05T05:41:00.565Z,118.63
2019-04-05T05:42:35.527Z,116.03
2019-04-05T05:44:10.442Z,133.37
2019-04-05T05:45:45.535Z,128.93
2019-04-05T05:47:20.658Z,130.80
2019-04-05T05:48:55.437Z,127.47
2019-04-05T05:50:30.263Z,115.97
2019-04-05T05:52:04.950Z,111.50
2019-04-05T05:53:39.829Z,105.70
2019-04-05T05:55:14.775Z,117.73
2019-04-05T05:56:49.218Z,114.17
2019-04-05T05:58:25.684Z,111.70
2019-04-05T06:00:00.613Z,122.57
2019-04-05T06:01:36.300Z,123.43
2019-04-05T06:03:12.065Z,109.90
2019-04-05T06:04:46.879Z,114.83
2019-04-05T06:06:21.783Z,117.30
2019-04-05T06:07:56.569Z,123.57
2019-04-05T06:09:31.437Z,119.27
2019-04-05T06:11:06.322Z,114.00
2019-04-05T06:12:41.125Z,119.50
2019-04-05T06:14:15.918Z,125.97
2019-04-05T06:15:50.791Z,124.37
2019-04-05T06:17:25.836Z,109.67
2019-04-05T06:19:01.165Z,126.77
2019-04-05T06:20:36.102Z,118.60
2019-04-05T06:22:11.218Z,105.77
2019-04-05T06:23:45.999Z,116.90
2019-04-05T06:25:20.854Z,119.83
2019-04-05T06:26:55.286Z,111.37
2019-04-05T06:28:29.670Z,113.73
2019-04-05T06:30:05.207Z,115.43
2019-04-05T06:31:39.800Z,117.83
2019-04-05T06:33:14.157Z,111.50
2019-04-05T06:34:48.837Z,116.77
2019-04-05T06:36:23.545Z,112.07
2019-04-05T06:37:58.276Z,107.67
2019-04-05T06:39:33.324Z,115.70
2019-04-05T06:41:08.118Z,119.67
2019-04-05T06:42:42.903Z,113.30
2019-04-05T06:44:18.336Z,116.90
2019-04-05T06:45:53.168Z,115.53
2019-04-05T06:47:27.990Z,120.10
2019-04-05T06:49:02.823Z,118.03
2019-04-05T06:50:38.292Z,114.80
2019-04-05T06:52:13.072Z,115.50
2019-04-05T06:53:47.735Z,120.63
2019-04-05T06:55:22.393Z,111.03
2019-04-05T06:56:56.818Z,116.43
2019-04-05T06:58:31.204Z,105.00
2019-04-05T07:00:06.415Z,110.20
2019-04-05T07:01:40.856Z,113.40
2019-04-05T07:03:15.601Z,113.63
2019-04-05T07:04:50.506Z,110.67
2019-04-05T07:06:25.014Z,105.70
2019-04-05T07:07:59.732Z,115.20
2019-04-05T07:09:34.447Z,110.60
2019-04-05T07:11:09.085Z,92.87
2019-04-05T07:12:43.843Z,103.50
2019-04-05T07:14:18.230Z,99.60
2019-04-05T07:15:53.254Z,111.33
2019-04-05T07:17:27.652Z,97.13
2019-04-05T07:19:02.275Z,103.80
2019-04-05T07:20:36.903Z,101.77
2019-04-05T07:22:11.663Z,100.33
2019-04-05T07:23:46.333Z,98.03
2019-04-05T07:25:20.777Z,94.47
2019-04-05T07:26:55.210Z,101.00
2019-04-05T07:28:29.618Z,91.23
2019-04-05T07:30:04.374Z,95.20
2019-04-05T07:31:38.805Z,91.60
2019-04-05T07:33:13.222Z,99.20
2019-04-05T07:34:47.881Z,95.73
2019-04-05T07:36:22.617Z,106.27
2019-04-05T07:37:57.413Z,91.43
2019-04-05T07:39:32.186Z,92.47
2019-04-05T07:41:07.005Z,87.40
2019-04-05T07:42:42.020Z,87.73
2019-04-05T07:44:16.807Z,81.57
2019-04-05T07:45:51.824Z,78.20
2019-04-05T07:47:26.876Z,76.80
2019-04-05T07:49:02.135Z,74.87
2019-04-05T07:50:36.904Z,84.27
2019-04-05T07:52:13.135Z,85.10
2019-04-05T07:53:48.351Z,86.30
2019-04-05T07:55:23.205Z,89.33
2019-04-05T07:56:58.395Z,78.93
2019-04-05T07:58:33.441Z,87.03
2019-04-05T08:00:10.795Z,84.03
2019-04-05T08:01:45.986Z,85.73
2019-04-05T08:03:21.859Z,82.97
2019-04-05T08:04:56.976Z,81.47
2019-04-05T08:06:34.127Z,88.87
2019-04-05T08:08:14.311Z,89.70
2019-04-05T08:09:49.527Z,85.53
2019-04-05T08:11:26.523Z,82.97
2019-04-05T08:13:03.952Z,88.53
2019-04-05T08:14:40.903Z,91.77
2019-04-05T08:16:15.838Z,82.67
2019-04-05T08:17:51.106Z,81.83
2019-04-05T08:19:26.191Z,87.80
2019-04-05T08:21:01.236Z,80.60
2019-04-05T08:22:36.022Z,77.10
2019-04-05T08:24:11.027Z,77.63
2019-04-05T08:25:46.342Z,77.03
2019-04-05T08:27:21.118Z,76.60
2019-04-05T08:28:55.995Z,81.77
2019-04-05T08:30:30.785Z,76.87
2019-04-05T08:32:14.311Z,79.77
2019-04-05T08:33:42.162Z,76.80
2019-04-05T08:35:16.952Z,75.50
2019-04-05T08:36:51.972Z,78.73
2019-04-05T08:38:27.053Z,70.63
2019-04-05T08:40:02.078Z,73.37
2019-04-05T08:41:37.180Z,68.27
2019-04-05T08:43:11.963Z,67.53
2019-04-05T08:44:46.761Z,74.33
2019-04-05T08:46:21.863Z,70.60
2019-04-05T08:47:56.638Z,68.27
2019-04-05T08:49:31.502Z,68.67
2019-04-05T08:51:06.566Z,65.77
2019-04-05T08:52:41.590Z,63.67
2019-04-05T08:54:16.376Z,63.00
2019-04-05T08:55:51.217Z,67.87
2019-04-05T08:57:26.075Z,66.87
2019-04-05T08:59:01.118Z,67.93
2019-04-05T09:00:35.896Z,60.43
2019-04-05T09:02:10.672Z,62.57
2019-04-05T09:03:45.556Z,58.13
2019-04-05T09:05:20.342Z,59.27
2019-04-05T09:06:54.805Z,56.57
2019-04-05T09:08:29.555Z,57.57
2019-04-05T09:10:04.652Z,58.70
2019-04-05T09:11:39.433Z,56.20
2019-04-05T09:13:14.447Z,58.87
2019-04-05T09:14:49.224Z,61.07
2019-04-05T09:16:24.107Z,60.37
2019-04-05T09:17:59.151Z,58.57
2019-04-05T09:19:33.933Z,60.60
2019-04-05T09:21:10.266Z,57.23
2019-04-05T09:22:45.192Z,54.97
2019-04-05T09:24:19.976Z,53.53
2019-04-05T09:25:54.802Z,57.93
2019-04-05T09:27:29.575Z,52.13
2019-04-05T09:29:04.534Z,53.43
2019-04-05T09:30:39.396Z,49.80
2019-04-05T09:32:14.177Z,51.87
2019-04-05T09:33:49.195Z,50.50
2019-04-05T09:35:23.983Z,47.93
2019-04-05T09:36:59.253Z,48.73
2019-04-05T09:38:34.279Z,48.17
2019-04-05T09:40:09.294Z,47.80
2019-04-05T09:41:44.105Z,47.07
2019-04-05T09:43:19.120Z,44.27
2019-04-05T09:44:54.164Z,43.17
2019-04-05T09:46:28.945Z,43.57
2019-04-05T09:48:03.759Z,44.53
2019-04-05T09:49:38.534Z,40.67
2019-04-05T09:51:13.397Z,42.73
2019-04-05T09:52:48.524Z,46.73
2019-04-05T09:54:23.575Z,42.23
2019-04-05T09:55:58.360Z,43.37
2019-04-05T09:57:33.139Z,45.60
2019-04-05T09:59:08.023Z,38.03
2019-04-05T10:00:43.451Z,36.83
2019-04-05T10:02:18.236Z,34.13
2019-04-05T10:03:53.119Z,32.87
2019-04-05T10:05:27.887Z,36.57
2019-04-05T10:07:02.707Z,36.30
2019-04-05T10:08:37.484Z,39.50
2019-04-05T10:10:12.727Z,39.07
2019-04-05T10:11:47.582Z,38.33
2019-04-05T10:13:22.477Z,38.90
2019-04-05T10:14:57.739Z,35.37
2019-04-05T10:16:32.848Z,37.30
2019-04-05T10:18:07.708Z,37.57
2019-04-05T10:19:49.702Z,36.50
2019-04-05T10:21:19.315Z,35.83
2019-04-05T10:22:54.354Z,34.17
2019-04-05T10:24:29.123Z,32.73
2019-04-05T10:26:04.852Z,34.27
2019-04-05T10:27:39.639Z,30.73
2019-04-05T10:29:14.428Z,33.90
2019-04-05T10:30:51.793Z,32.27
2019-04-05T10:32:25.785Z,28.87
2019-04-05T10:34:00.576Z,32.07
2019-04-05T10:35:35.391Z,31.77
2019-04-05T10:37:10.542Z,26.93
2019-04-05T10:38:45.336Z,26.87
2019-04-05T10:40:20.592Z,28.00
2019-04-05T10:42:03.202Z,30.27
2019-04-05T10:43:32.457Z,28.77
2019-04-05T10:45:09.874Z,26.47
2019-04-05T10:46:44.669Z,25.03
2019-04-05T10:48:19.703Z,22.53
2019-04-05T10:50:03.177Z,23.63
2019-04-05T10:51:31.512Z,22.47
2019-04-05T10:53:06.534Z,22.43
2019-04-05T10:54:41.717Z,23.57
2019-04-05T10:56:16.920Z,21.67
2019-04-05T10:57:51.801Z,22.27
2019-04-05T10:59:26.859Z,21.80
2019-04-05T11:01:01.839Z,19.73
2019-04-05T11:02:36.822Z,22.40
2019-04-05T11:04:11.741Z,20.70
2019-04-05T11:05:49.111Z,20.73
2019-04-05T11:07:23.593Z,20.57
2019-04-05T11:08:58.628Z,18.10
2019-04-05T11:10:33.662Z,20.93
2019-04-05T11:12:08.857Z,19.40
2019-04-05T11:13:43.775Z,18.20
2019-04-05T11:15:18.584Z,18.43
2019-04-05T11:16:58.753Z,21.13
2019-04-05T11:18:30.665Z,17.80
2019-04-05T11:20:20.684Z,20.13
2019-04-05T11:21:47.931Z,15.83
2019-04-05T11:23:22.294Z,16.13
2019-04-05T11:24:57.081Z,17.37
2019-04-05T11:26:31.995Z,18.60
2019-04-05T11:28:06.772Z,16.43
2019-04-05T11:29:41.581Z,18.27
2019-04-05T11:31:16.342Z,18.60
2019-04-05T11:32:51.795Z,17.70
2019-04-05T11:34:26.642Z,16.27
2019-04-05T11:36:01.639Z,18.50
2019-04-05T11:37:39.519Z,18.47
2019-04-05T11:39:14.096Z,16.00
2019-04-05T11:40:49.090Z,16.80
2019-04-05T11:42:27.420Z,14.93
2019-04-05T11:44:02.820Z,17.50
2019-04-05T11:45:37.850Z,15.63
2019-04-05T11:47:12.870Z,16.90
2019-04-05T11:48:48.722Z,15.73
2019-04-05T11:50:33.899Z,14.17
2019-04-05T11:52:00.118Z,12.83
2019-04-05T11:53:34.891Z,13.27
2019-04-05T11:55:10.383Z,13.67
2019-04-05T11:56:45.169Z,11.90
2019-04-05T11:58:19.973Z,12.20
2019-04-05T11:59:54.364Z,11.97
2019-04-05T12:01:34.843Z,12.60
2019-04-05T12:03:10.736Z,14.90
2019-04-05T12:04:45.776Z,13.47
2019-04-05T12:06:20.539Z,9.43
2019-04-05T12:08:00.778Z,10.73
2019-04-05T12:09:31.820Z,12.20
2019-04-05T12:11:07.132Z,9.70
2019-04-05T12:12:42.131Z,9.83
2019-04-05T12:14:29.332Z,10.80
2019-04-05T12:15:53.402Z,11.33
2019-04-05T12:17:28.551Z,11.37
2019-04-05T12:19:04.772Z,10.87
2019-04-05T12:20:49.230Z,12.47
2019-04-05T12:22:19.734Z,11.63
2019-04-05T12:23:53.500Z,11.43
2019-04-05T12:25:28.791Z,11.13
2019-04-05T12:27:04.852Z,11.03
2019-04-05T12:28:40.567Z,10.97
2019-04-05T12:30:17.907Z,10.77
2019-04-05T12:31:53.518Z,10.47
2019-04-05T12:33:28.415Z,12.00
2019-04-05T12:35:03.699Z,11.53
2019-04-05T12:36:38.382Z,8.00
2019-04-05T12:38:14.673Z,10.60
2019-04-05T12:39:49.633Z,10.70
2019-04-05T12:41:24.679Z,8.87
2019-04-05T12:42:59.829Z,10.50
2019-04-05T12:44:34.593Z,9.37
2019-04-05T12:46:09.519Z,11.30
2019-04-05T12:47:45.593Z,12.67
2019-04-05T12:49:20.960Z,10.67
2019-04-05T12:51:01.232Z,10.63
2019-04-05T12:52:32.552Z,7.73
2019-04-05T12:54:07.391Z,9.77
2019-04-05T12:55:42.685Z,8.20
2019-04-05T12:57:17.464Z,8.63
2019-04-05T12:58:53.680Z,9.40
2019-04-05T13:00:29.227Z,9.63
2019-04-05T13:02:04.141Z,7.03
2019-04-05T13:03:39.653Z,8.13
2019-04-05T13:05:15.229Z,9.53
2019-04-05T13:06:52.671Z,8.00
2019-04-05T13:08:27.281Z,7.60
2019-04-05T13:10:02.586Z,9.00
2019-04-05T13:11:37.947Z,10.73
2019-04-05T13:13:12.715Z,9.93
2019-04-05T13:14:47.525Z,9.13
2019-04-05T13:17:01.753Z,9.17
2019-04-05T13:18:47.721Z,10.43
2019-04-05T13:20:51.597Z,8.90
2019-04-05T13:22:56.701Z,8.30
2019-04-05T13:26:33.423Z,9.17
2019-04-05T13:28:58.196Z,9.60
2019-04-05T13:30:32.965Z,9.73
2019-04-05T13:32:21.554Z,8.90
2019-04-05T13:33:55.257Z,9.57
2019-04-05T13:35:30.697Z,11.07
2019-04-05T13:37:05.573Z,10.97
2019-04-05T13:38:40.313Z,9.73
2019-04-05T13:40:14.934Z,8.87
2019-04-05T13:41:49.289Z,9.13
2019-04-05T13:43:23.649Z,10.40
2019-04-05T13:44:58.318Z,10.60
2019-04-05T13:46:32.786Z,11.07
2019-04-05T13:48:08.916Z,8.90
2019-04-05T13:49:43.453Z,9.90
2019-04-05T13:51:27.721Z,76.20
2019-04-05T13:52:54.426Z,12.63
2019-04-05T13:54:28.777Z,10.90
2019-04-05T13:56:03.412Z,9.93
2019-04-05T13:57:38.445Z,8.90
2019-04-05T13:59:13.921Z,9.40
2019-04-05T14:00:49.838Z,10.17
2019-04-05T14:02:25.034Z,10.90
2019-04-05T14:04:00.203Z,8.77
2019-04-05T14:05:35.124Z,10.37
2019-04-05T14:07:09.892Z,9.37
2019-04-05T14:08:44.922Z,9.20
2019-04-05T14:10:19.974Z,9.97
2019-04-05T14:11:55.008Z,9.00
2019-04-05T14:13:29.784Z,13.13
2019-04-05T14:15:04.968Z,9.23
2019-04-05T14:16:42.735Z,10.50
2019-04-05T14:18:16.283Z,11.50
2019-04-05T14:19:51.404Z,10.23
2019-04-05T14:21:39.492Z,9.93
2019-04-05T14:23:04.379Z,12.00
2019-04-05T14:24:39.140Z,9.73
2019-04-05T14:26:13.912Z,8.80
2019-04-05T14:27:48.313Z,11.93
2019-04-05T14:29:22.819Z,10.23
2019-04-05T14:30:57.783Z,9.60
2019-04-05T14:32:32.557Z,9.47
2019-04-05T14:34:07.412Z,11.77
2019-04-05T14:35:42.287Z,10.03
2019-04-05T14:37:17.069Z,13.10
2019-04-05T14:38:51.959Z,10.93
2019-04-05T14:40:29.399Z,11.47
2019-04-05T14:42:09.634Z,9.60
2019-04-05T14:43:40.287Z,10.10
2019-04-05T14:45:15.380Z,9.00
2019-04-05T14:46:50.155Z,9.10
2019-04-05T14:48:27.350Z,10.47
2019-04-05T14:50:01.164Z,9.87
2019-04-05T14:51:35.509Z,8.60
2019-04-05T14:53:10.351Z,11.27
2019-04-05T14:54:45.392Z,9.37
2019-04-05T14:56:20.167Z,9.37
2019-04-05T14:57:54.941Z,10.20
2019-04-05T14:59:32.693Z,9.37
2019-04-05T15:01:06.375Z,8.70
2019-04-05T15:02:43.683Z,8.23
2019-04-05T15:04:17.759Z,8.30
2019-04-05T15:05:52.157Z,8.80
2019-04-05T15:07:26.884Z,9.27
2019-04-05T15:09:02.178Z,8.63
2019-04-05T15:10:37.427Z,9.50
2019-04-05T15:12:12.036Z,8.87
2019-04-05T15:13:46.513Z,8.47
2019-04-05T15:15:20.870Z,8.47
2019-04-05T15:16:55.457Z,9.53
2019-04-05T15:18:29.829Z,9.80
2019-04-05T15:20:05.642Z,8.77
2019-04-05T15:21:40.066Z,8.13
2019-04-05T15:23:14.588Z,9.50
2019-04-05T15:24:49.021Z,9.23
2019-04-05T15:26:23.941Z,9.60
2019-04-05T15:27:59.168Z,10.17
2019-04-05T15:29:34.175Z,8.17
2019-04-05T15:31:08.952Z,8.17
2019-04-05T15:32:44.005Z,9.23
2019-04-05T15:34:18.793Z,9.13
2019-04-05T15:35:53.568Z,10.27
2019-04-05T15:37:31.782Z,8.87
2019-04-05T15:39:09.115Z,9.13
2019-04-05T15:40:43.991Z,10.60
2019-04-05T15:42:19.010Z,8.07
2019-04-05T15:43:53.786Z,9.73
2019-04-05T15:45:28.590Z,10.17
2019-04-05T15:47:03.824Z,9.77
2019-04-05T15:48:38.618Z,8.30
2019-04-05T15:50:13.712Z,9.90
2019-04-05T15:51:48.522Z,8.33
2019-04-05T15:53:23.522Z,9.07
2019-04-05T15:54:58.309Z,8.50
2019-04-05T15:56:34.158Z,11.73
2019-04-05T15:58:08.953Z,14.20
2019-04-05T15:59:45.090Z,12.87
2019-04-05T16:01:19.564Z,17.90
2019-04-05T16:02:54.266Z,34.00
2019-04-05T16:04:28.733Z,13.43
2019-04-05T16:06:03.165Z,9.60
2019-04-05T16:07:37.778Z,16.20
2019-04-05T16:09:17.047Z,10.63
2019-04-05T16:10:51.878Z,10.10
2019-04-05T16:12:26.231Z,11.23
2019-04-05T16:14:00.619Z,10.07
2019-04-05T16:15:35.039Z,11.23
2019-04-05T16:17:12.247Z,10.17
2019-04-05T16:18:45.501Z,10.33
2019-04-05T16:20:20.298Z,9.23
2019-04-05T16:21:54.659Z,9.07
2019-04-05T16:23:29.285Z,8.37
2019-04-05T16:25:04.764Z,8.97
2019-04-05T16:26:39.384Z,9.67
2019-04-05T16:28:13.972Z,9.43
2019-04-05T16:29:48.360Z,10.83
2019-04-05T16:31:22.740Z,8.43
2019-04-05T16:32:57.505Z,9.17
2019-04-05T16:34:31.858Z,11.37
2019-04-05T16:36:06.210Z,9.37
2019-04-05T16:37:40.650Z,9.33
2019-04-05T16:39:17.925Z,10.03
2019-04-05T16:40:52.307Z,8.80
2019-04-05T16:42:26.959Z,7.97
2019-04-05T16:44:01.316Z,10.63
2019-04-05T16:45:38.422Z,9.60
2019-04-05T16:47:11.725Z,10.17
2019-04-05T16:48:46.103Z,9.47
2019-04-05T16:50:21.830Z,8.93
2019-04-05T16:51:56.176Z,10.50
2019-04-05T16:53:31.168Z,10.07
2019-04-05T16:55:06.187Z,9.30
2019-04-05T16:56:40.610Z,13.77
2019-04-05T16:58:14.988Z,12.10
2019-04-05T16:59:49.400Z,8.70
2019-04-05T17:01:27.135Z,12.43
2019-04-05T17:03:00.333Z,11.80
2019-04-05T17:04:35.340Z,11.30
2019-04-05T17:06:10.373Z,9.33
2019-04-05T17:07:45.407Z,11.23
2019-04-05T17:09:20.474Z,10.37
2019-04-05T17:10:55.220Z,12.43
2019-04-05T17:12:30.233Z,8.80
2019-04-05T17:14:05.608Z,11.47
2019-04-05T17:15:40.390Z,11.57
2019-04-05T17:17:15.531Z,10.90
2019-04-05T17:18:50.531Z,8.97
2019-04-05T17:20:25.585Z,9.27
2019-04-05T17:21:59.981Z,10.27
2019-04-05T17:23:34.755Z,9.20
2019-04-05T17:25:09.101Z,10.87
2019-04-05T17:26:43.770Z,11.63
2019-04-05T17:28:18.131Z,10.13
2019-04-05T17:29:52.482Z,9.87
2019-04-05T17:31:27.338Z,9.47
2019-04-05T17:33:01.778Z,11.00
2019-04-05T17:34:36.129Z,9.87
2019-04-05T17:36:10.559Z,9.57
2019-04-05T17:37:45.302Z,10.37
2019-04-05T17:39:19.678Z,10.37
2019-04-05T17:40:54.045Z,11.87
2019-04-05T17:42:28.461Z,10.90
2019-04-05T17:44:03.253Z,9.87
2019-04-05T17:45:37.897Z,9.07
2019-04-05T17:47:12.313Z,9.67
2019-04-05T17:48:46.667Z,10.63
2019-04-05T17:50:32.838Z,9.37
2019-04-05T17:52:07.595Z,11.33
2019-04-05T17:53:42.197Z,9.73
2019-04-05T17:55:16.808Z,11.70
2019-04-05T17:56:51.667Z,10.40
2019-04-05T17:58:28.658Z,10.60
2019-04-05T18:00:03.534Z,11.93
2019-04-05T18:01:38.859Z,9.57
2019-04-05T18:03:13.359Z,11.23
2019-04-05T18:04:48.088Z,12.23
2019-04-05T18:06:22.453Z,11.53
2019-04-05T18:07:57.155Z,11.70
2019-04-05T18:09:31.767Z,12.57
2019-04-05T18:11:06.324Z,11.30
2019-04-05T18:12:41.179Z,13.07
2019-04-05T18:14:15.798Z,13.77
2019-04-05T18:15:52.613Z,12.67
2019-04-05T18:17:26.539Z,11.47
2019-04-05T18:19:01.577Z,13.83
2019-04-05T18:20:36.158Z,14.10
2019-04-05T18:22:10.622Z,13.40
2019-04-05T18:23:45.266Z,13.37
2019-04-05T18:25:19.641Z,14.00
2019-04-05T18:26:54.044Z,15.43
2019-04-05T18:28:29.061Z,13.10
2019-04-05T18:30:04.424Z,13.30
2019-04-05T18:31:38.796Z,13.67
2019-04-05T18:33:13.250Z,15.77
2019-04-05T18:34:47.671Z,12.60
2019-04-05T18:36:22.590Z,13.53
2019-04-05T18:37:56.959Z,13.00
2019-04-05T18:39:31.415Z,13.47
2019-04-05T18:41:05.798Z,16.40
2019-04-05T18:42:40.661Z,14.63
2019-04-05T18:44:15.531Z,14.37
2019-04-05T18:45:49.986Z,13.57
2019-04-05T18:47:24.406Z,15.27
2019-04-05T18:48:58.842Z,13.23
2019-04-05T18:50:33.574Z,12.97
2019-04-05T18:52:08.261Z,13.40
2019-04-05T18:53:42.962Z,14.33
2019-04-05T18:55:17.354Z,16.30
2019-04-05T18:56:52.094Z,17.63
2019-04-05T18:58:26.908Z,17.87
2019-04-05T19:00:01.353Z,17.00
2019-04-05T19:01:35.858Z,15.77
2019-04-05T19:03:10.866Z,18.13
2019-04-05T19:04:45.331Z,17.07
2019-04-05T19:06:20.202Z,20.80
2019-04-05T19:07:57.435Z,17.17
2019-04-05T19:09:31.830Z,18.20
2019-04-05T19:11:06.241Z,17.10
2019-04-05T19:12:41.548Z,16.73
2019-04-05T19:14:16.308Z,18.17
2019-04-05T19:15:51.021Z,17.97
2019-04-05T19:17:25.516Z,17.00
2019-04-05T19:18:59.880Z,14.57
2019-04-05T19:20:36.832Z,15.43
2019-04-05T19:22:10.345Z,14.30
2019-04-05T19:23:50.837Z,14.83
2019-04-05T19:25:21.071Z,15.30
2019-04-05T19:26:55.573Z,14.00
2019-04-05T19:28:30.233Z,14.17
2019-04-05T19:49:21.366Z,25.93
2019-04-05T19:50:56.440Z,26.47
2019-04-05T19:52:31.230Z,28.37
2019-04-05T19:54:06.166Z,29.03
2019-04-05T19:55:40.958Z,27.60
2019-04-05T19:57:15.786Z,31.87
2019-04-05T19:58:50.582Z,29.93
2019-04-05T20:00:26.265Z,30.40
2019-04-05T20:02:01.042Z,29.87
2019-04-05T20:03:36.213Z,23.57
2019-04-05T20:05:11.450Z,23.90
2019-04-05T20:06:46.577Z,25.07
2019-04-05T20:08:21.709Z,25.10
2019-04-05T20:09:56.836Z,20.37
2019-04-05T20:11:32.278Z,21.17
2019-04-05T20:13:07.096Z,21.43
2019-04-05T20:14:41.874Z,17.77
2019-04-05T20:16:16.663Z,15.23
2019-04-05T20:17:51.772Z,17.03
2019-04-05T20:19:27.207Z,15.00
2019-04-05T20:21:02.334Z,15.60
2019-04-05T20:22:36.749Z,18.50
2019-04-05T20:24:14.302Z,16.43
2019-04-05T20:25:47.820Z,18.80
2019-04-05T20:27:22.188Z,20.23
2019-04-05T20:28:56.913Z,19.93
2019-04-05T20:30:31.647Z,23.77
2019-04-05T20:32:06.019Z,21.50
2019-04-05T20:33:40.795Z,22.30
2019-04-05T20:35:15.314Z,22.93
2019-04-05T20:36:49.966Z,24.27
2019-04-05T20:38:24.627Z,22.03
2019-04-05T20:39:59.255Z,23.80
2019-04-05T20:41:33.645Z,24.30
2019-04-05T20:43:08.006Z,23.83
2019-04-05T20:44:42.696Z,24.13
2019-04-05T20:46:17.415Z,25.03